Time;durP1;ratioP1;P1;durP2;ratioP2;P2;SDS_P1;SDS_P2;PMS_P1;PMS_P2;Temp;Humidity;BMP_temperature;BMP_pressure;BME280_temperature;BME280_humidity;BME280_pressure;Samples;Min_cycle;Max_cycle;Signal;HPM_P1;HPM_P2
2022/04/26 03:36:16;;;;;;;8.90;2.50;;;;;;;;;;4892296;29;20049;-75
2022/04/26 03:38:47;;;;;;;5.47;2.30;;;;;;;;;;4892403;29;20385;-75
2022/04/26 03:41:17;;;;;;;24.63;2.53;;;;;;;;;;4892453;29;20413;-75
2022/04/26 03:43:47;;;;;;;11.30;2.47;;;;;;;;;;4892086;29;20417;-75
2022/04/26 03:46:18;;;;;;;4.25;2.00;;;;;;;;;;4891700;29;20057;-75
2022/04/26 03:48:49;;;;;;;4.82;1.70;;;;;;;;;;4892165;29;20059;-75
2022/04/26 03:51:18;;;;;;;4.18;2.08;;;;;;;;;;4891688;29;20127;-75
2022/04/26 03:53:48;;;;;;;5.03;2.03;;;;;;;;;;4891835;29;20893;-74
2022/04/26 03:56:18;;;;;;;4.75;1.73;;;;;;;;;;4891532;29;20057;-75
2022/04/26 03:58:48;;;;;;;3.67;1.85;;;;;;;;;;4891657;29;20061;-75
2022/04/26 04:01:18;;;;;;;6.00;1.60;;;;;;;;;;4891736;29;20495;-75
2022/04/26 04:03:49;;;;;;;2.80;1.50;;;;;;;;;;4891817;29;20056;-75
2022/04/26 04:06:19;;;;;;;5.57;2.40;;;;;;;;;;4892323;29;20060;-75
2022/04/26 04:08:49;;;;;;;4.45;1.98;;;;;;;;;;4891418;29;20444;-75
2022/04/26 04:11:19;;;;;;;3.72;2.08;;;;;;;;;;4891406;29;20064;-75
2022/04/26 04:13:49;;;;;;;7.07;3.95;;;;;;;;;;4891531;29;20827;-75
2022/04/26 04:16:19;;;;;;;6.13;3.20;;;;;;;;;;4891666;29;20052;-75
2022/04/26 04:21:39;;;;;;;6.07;2.78;;;;;;;;;;4891274;29;20055;-75
2022/04/26 04:24:09;;;;;;;7.22;2.63;;;;;;;;;;4875100;29;20065;-75
2022/04/26 04:26:40;;;;;;;5.68;2.45;;;;;;;;;;4891382;29;20041;-75
2022/04/26 04:29:10;;;;;;;8.52;2.47;;;;;;;;;;4891499;29;20052;-74
2022/04/26 04:31:41;;;;;;;11.98;3.40;;;;;;;;;;4891122;29;20519;-76
2022/04/26 04:34:12;;;;;;;6.40;2.60;;;;;;;;;;4891256;29;20052;-75
2022/04/26 04:36:41;;;;;;;29.75;3.03;;;;;;;;;;4892363;29;20056;-75
2022/04/26 04:39:13;;;;;;;5.15;2.00;;;;;;;;;;4890566;29;20083;-76
2022/04/26 04:41:43;;;;;;;4.60;2.20;;;;;;;;;;4891912;29;20059;-75
2022/04/26 04:44:13;;;;;;;6.60;2.35;;;;;;;;;;4891039;29;20045;-75
2022/04/26 04:46:42;;;;;;;5.05;2.53;;;;;;;;;;4893247;29;20504;-75
2022/04/26 04:49:12;;;;;;;8.95;2.22;;;;;;;;;;4895475;29;20377;-75
2022/04/26 04:51:42;;;;;;;7.03;2.55;;;;;;;;;;4894455;29;20044;-75
2022/04/26 04:54:12;;;;;;;10.57;2.78;;;;;;;;;;4878458;29;20535;-76
2022/04/26 04:56:42;;;;;;;8.52;2.60;;;;;;;;;;4894434;29;20078;-76
2022/04/26 04:59:13;;;;;;;10.82;2.28;;;;;;;;;;4894870;29;20405;-75
2022/04/26 05:01:43;;;;;;;11.02;2.63;;;;;;;;;;4894798;29;20060;-75
2022/04/26 05:04:15;;;;;;;3.63;2.05;;;;;;;;;;4893994;29;20068;-75
2022/04/26 05:06:45;;;;;;;6.60;1.95;;;;;;;;;;4895343;29;20053;-75
2022/04/26 05:09:15;;;;;;;6.30;1.70;;;;;;;;;;4893492;29;20069;-75
2022/04/26 05:11:46;;;;;;;;;;;;;;;;;;4878788;29;20048;-76
2022/04/26 05:14:16;;;;;;;15.40;2.08;;;;;;;;;;4894223;29;19931;-77
2022/04/26 05:16:47;;;;;;;11.45;2.08;;;;;;;;;;4894245;29;20634;-77
2022/04/26 05:19:16;;;;;;;4.38;1.88;;;;;;;;;;4894199;29;20059;-77
2022/04/26 05:21:46;;;;;;;14.23;1.90;;;;;;;;;;4894784;29;20052;-77
2022/04/26 05:27:05;;;;;;;2.50;1.40;;;;;;;;;;4894128;29;20416;-76
2022/04/26 05:29:36;;;;;;;6.45;2.00;;;;;;;;;;4893852;29;20501;-76
2022/04/26 05:32:06;;;;;;;;;;;;;;;;;;4894968;29;20053;-76
2022/04/26 05:34:35;;;;;;;3.42;1.63;;;;;;;;;;4894436;29;19927;-76
2022/04/26 05:37:05;;;;;;;10.63;1.92;;;;;;;;;;4894328;29;20052;-76
2022/04/26 05:39:35;;;;;;;9.48;2.63;;;;;;;;;;4893966;29;20045;-76
2022/04/26 05:42:06;;;;;;;9.63;1.55;;;;;;;;;;4893826;29;20436;-76
2022/04/26 05:44:42;;;;;;;5.95;1.20;;;;;;;;;;4877875;29;20505;-76
2022/04/26 05:47:12;;;;;;;6.78;1.67;;;;;;;;;;4894338;29;20048;-76
2022/04/26 05:49:42;;;;;;;5.78;1.42;;;;;;;;;;4894492;29;20060;-76
2022/04/26 05:52:13;;;;;;;10.23;1.65;;;;;;;;;;4893138;29;20048;-76
2022/04/26 05:54:43;;;;;;;5.65;1.70;;;;;;;;;;4894178;29;20048;-76
2022/04/26 05:57:13;;;;;;;3.72;1.77;;;;;;;;;;4892909;29;20053;-76
2022/04/26 05:59:43;;;;;;;7.72;2.33;;;;;;;;;;4893670;29;20049;-76
2022/04/26 06:02:14;;;;;;;6.40;2.65;;;;;;;;;;4893644;29;20063;-76
2022/04/26 06:04:44;;;;;;;22.23;3.50;;;;;;;;;;4893603;29;20420;-75
2022/04/26 06:07:14;;;;;;;17.92;4.10;;;;;;;;;;4893571;29;20048;-75
2022/04/26 06:09:44;;;;;;;4.75;3.67;;;;;;;;;;4894161;29;20606;-76
2022/04/26 06:12:14;;;;;;;9.15;3.67;;;;;;;;;;4893890;29;20040;-75
2022/04/26 06:14:43;;;;;;;8.75;4.30;;;;;;;;;;4893829;29;20060;-75
2022/04/26 06:17:13;;;;;;;17.90;4.70;;;;;;;;;;4892884;29;20060;-75
2022/04/26 06:19:43;;;;;;;5.13;3.70;;;;;;;;;;4876672;29;20104;-75
2022/04/26 06:22:13;;;;;;;7.75;3.65;;;;;;;;;;4893330;29;20048;-74
2022/04/26 06:24:43;;;;;;;5.53;2.40;;;;;;;;;;4892854;29;20060;-75
2022/04/26 06:27:13;;;;;;;2.40;2.20;;;;;;;;;;4893386;29;20401;-75
2022/04/26 06:29:43;;;;;;;5.97;2.30;;;;;;;;;;4892714;29;20413;-74
2022/04/26 06:32:13;;;;;;;4.97;2.45;;;;;;;;;;4893318;29;20067;-75
2022/04/26 06:34:42;;;;;;;4.22;2.58;;;;;;;;;;4893330;29;20057;-75
2022/04/26 06:37:16;;;;;;;2.38;2.13;;;;;;;;;;4893919;29;20052;-74
2022/04/26 06:39:46;;;;;;;2.83;2.08;;;;;;;;;;4893329;29;20052;-75
2022/04/26 06:42:16;;;;;;;7.60;2.13;;;;;;;;;;4892509;29;20036;-75
2022/04/26 06:44:47;;;;;;;2.67;1.80;;;;;;;;;;4891041;29;20650;-75
2022/04/26 06:47:16;;;;;;;7.05;2.03;;;;;;;;;;4892852;29;20075;-75
2022/04/26 06:49:46;;;;;;;5.88;3.28;;;;;;;;;;4893039;29;20063;-74
2022/04/26 06:52:16;;;;;;;11.68;3.15;;;;;;;;;;4892636;29;20402;-74
2022/04/26 06:54:47;;;;;;;2.58;1.95;;;;;;;;;;4892046;29;20068;-75
2022/04/26 06:57:18;;;;;;;2.70;1.55;;;;;;;;;;4892599;29;20059;-74
2022/04/26 06:59:49;;;;;;;8.95;1.60;;;;;;;;;;4892728;29;20053;-74
2022/04/26 07:02:20;;;;;;;5.70;1.73;;;;;;;;;;4893081;29;20055;-74
2022/04/26 07:04:51;;;;;;;2.70;1.45;;;;;;;;;;4877596;29;20523;-74
2022/04/26 07:07:22;;;;;;;4.07;1.58;;;;;;;;;;4892382;29;20052;-75
2022/04/26 07:09:52;;;;;;;2.10;1.38;;;;;;;;;;4892107;29;20049;-75
2022/04/26 07:12:22;;;;;;;7.05;1.70;;;;;;;;;;4892565;29;20076;-75
2022/04/26 07:14:52;;;;;;;6.22;1.38;;;;;;;;;;4892400;29;20052;-75
2022/04/26 07:17:22;;;;;;;1.30;1.02;;;;;;;;;;4892810;29;20048;-75
2022/04/26 07:19:53;;;;;;;2.03;1.15;;;;;;;;;;4891921;29;20056;-74
2022/04/26 07:22:31;;;;;;;2.92;1.10;;;;;;;;;;4891930;29;20056;-75
2022/04/26 07:25:02;;;;;;;1.40;1.00;;;;;;;;;;4893023;29;20413;-75
2022/04/26 07:27:33;;;;;;;8.20;1.10;;;;;;;;;;4893187;29;20063;-75
2022/04/26 07:30:04;;;;;;;3.85;1.00;;;;;;;;;;4891322;29;20064;-74
2022/04/26 07:35:23;;;;;;;1.48;0.82;;;;;;;;;;4892265;29;20584;-75
2022/04/26 07:37:52;;;;;;;0.80;0.63;;;;;;;;;;4892202;29;20056;-75
2022/04/26 07:40:22;;;;;;;1.40;0.75;;;;;;;;;;4892056;29;20059;-74
2022/04/26 07:42:52;;;;;;;1.13;0.73;;;;;;;;;;4891865;29;20048;-74
2022/04/26 07:45:22;;;;;;;1.73;0.52;;;;;;;;;;4891713;29;20053;-74
2022/04/26 07:47:52;;;;;;;6.00;1.00;;;;;;;;;;4891687;29;20539;-75
2022/04/26 07:50:22;;;;;;;2.05;0.63;;;;;;;;;;4892071;29;20083;-75
2022/04/26 07:52:52;;;;;;;0.47;0.47;;;;;;;;;;4891674;29;20056;-75
2022/04/26 07:55:22;;;;;;;5.47;0.50;;;;;;;;;;4891929;29;20060;-75
2022/04/26 07:57:51;;;;;;;2.95;0.60;;;;;;;;;;4891772;29;20057;-74
2022/04/26 08:00:21;;;;;;;2.42;0.60;;;;;;;;;;4891304;29;20060;-75
2022/04/26 08:02:51;;;;;;;2.75;0.40;;;;;;;;;;4891439;29;20075;-75
2022/04/26 08:05:22;;;;;;;2.13;0.43;;;;;;;;;;4891741;29;20060;-74
2022/04/26 08:07:52;;;;;;;0.30;0.30;;;;;;;;;;4891411;29;20072;-74
2022/04/26 08:10:22;;;;;;;4.35;2.08;;;;;;;;;;4891210;29;20052;-74
2022/04/26 08:12:52;;;;;;;1.58;0.50;;;;;;;;;;4891752;29;20053;-74
2022/04/26 08:15:22;;;;;;;0.95;0.80;;;;;;;;;;4891809;29;20052;-74
2022/04/26 08:17:52;;;;;;;2.13;0.47;;;;;;;;;;4891119;29;20056;-74
2022/04/26 08:20:24;;;;;;;1.80;0.35;;;;;;;;;;4891188;29;20068;-74
2022/04/26 08:22:54;;;;;;;1.55;0.40;;;;;;;;;;4891132;29;20501;-74
2022/04/26 08:28:13;;;;;;;1.58;0.40;;;;;;;;;;4873895;29;20067;-74
2022/04/26 08:30:43;;;;;;;3.92;2.58;;;;;;;;;;4891194;29;20416;-74
2022/04/26 08:33:13;;;;;;;5.57;0.80;;;;;;;;;;4891444;29;20059;-74
2022/04/26 08:35:43;;;;;;;3.85;0.43;;;;;;;;;;4891204;29;20053;-74
2022/04/26 08:38:33;;;;;;;1.23;0.50;;;;;;;;;;4891948;29;20056;-74
2022/04/26 08:41:03;;;;;;;0.85;0.50;;;;;;;;;;4891036;29;20397;-74
2022/04/26 08:43:37;;;;;;;1.60;0.40;;;;;;;;;;4891194;29;20056;-74
2022/04/26 08:46:08;;;;;;;1.17;0.40;;;;;;;;;;4891522;29;20049;-74
2022/04/26 08:51:29;;;;;;;0.85;0.40;;;;;;;;;;4871983;29;20064;-74
2022/04/26 08:53:59;;;;;;;3.95;0.40;;;;;;;;;;4891237;29;20045;-73
2022/04/26 08:56:29;;;;;;;3.33;0.50;;;;;;;;;;4891061;29;20052;-74
2022/04/26 08:58:59;;;;;;;0.75;0.40;;;;;;;;;;4890919;29;20858;-73
2022/04/26 09:01:29;;;;;;;3.05;0.95;;;;;;;;;;4891249;29;20052;-74
2022/04/26 09:03:59;;;;;;;9.43;0.80;;;;;;;;;;4859164;29;20316;-73
2022/04/26 09:06:43;;;;;;;1.85;0.50;;;;;;;;;;4891562;29;20044;-73
2022/04/26 09:09:18;;;;;;;1.17;0.40;;;;;;;;;;4890875;29;20056;-73
2022/04/26 09:11:49;;;;;;;1.77;0.70;;;;;;;;;;4890740;29;20065;-73
2022/04/26 09:14:50;;;;;;;14.32;0.80;;;;;;;;;;4890631;29;20044;-74
2022/04/26 09:17:20;;;;;;;5.55;0.57;;;;;;;;;;4890923;29;20487;-73
2022/04/26 09:19:55;;;;;;;2.50;0.57;;;;;;;;;;4891270;29;20064;-74
2022/04/26 09:22:27;;;;;;;1.13;0.60;;;;;;;;;;4890794;29;20296;-74
2022/04/26 09:25:04;;;;;;;1.98;0.60;;;;;;;;;;4890587;29;20576;-73
2022/04/26 09:27:39;;;;;;;4.88;0.82;;;;;;;;;;4889310;29;20103;-75
2022/04/26 09:30:11;;;;;;;6.78;0.90;;;;;;;;;;4890790;29;20055;-74
2022/04/26 09:32:47;;;;;;;13.88;1.63;;;;;;;;;;4892459;29;20060;-76
2022/04/26 09:35:23;;;;;;;10.07;0.95;;;;;;;;;;4894520;29;20049;-74
2022/04/26 09:37:53;;;;;;;1.85;0.50;;;;;;;;;;4894035;29;20040;-74
2022/04/26 09:40:29;;;;;;;4.72;0.70;;;;;;;;;;4894043;29;20531;-74
2022/04/26 09:42:59;;;;;;;7.38;0.70;;;;;;;;;;4894625;29;20052;-74
2022/04/26 09:45:29;;;;;;;25.83;11.05;;;;;;;;;;4893680;29;20048;-73
2022/04/26 09:47:59;;;;;;;4.85;1.10;;;;;;;;;;4893760;29;20045;-74
2022/04/26 09:50:29;;;;;;;2.55;0.70;;;;;;;;;;4894027;29;20053;-73
2022/04/26 09:52:59;;;;;;;4.93;1.45;;;;;;;;;;4894462;29;21104;-76
2022/04/26 09:55:30;;;;;;;7.15;0.73;;;;;;;;;;4893647;29;20052;-74
2022/04/26 09:58:00;;;;;;;3.45;0.60;;;;;;;;;;4893818;29;20489;-74
2022/04/26 10:00:32;;;;;;;;;;;;;;;;;;4894517;29;20065;-73
2022/04/26 10:03:09;;;;;;;2.70;0.55;;;;;;;;;;4893998;29;19934;-74
2022/04/26 10:05:41;;;;;;;10.25;0.60;;;;;;;;;;4893958;29;20052;-74
2022/04/26 10:20:50;;;;;;;9.25;2.63;;;;;;;;;;5167568;27;20407;-78
2022/04/26 10:23:21;;;;;;;6.50;1.85;;;;;;;;;;5149468;28;20051;-77
2022/04/26 10:26:33;;;;;;;6.15;0.75;;;;;;;;;;5149823;28;20035;-77
2022/04/26 10:29:10;;;;;;;6.78;1.42;;;;;;;;;;5149735;28;20035;-78
2022/04/26 10:31:40;;;;;;;2.25;0.40;;;;;;;;;;5117247;28;20047;-75
2022/04/26 10:34:24;;;;;;;1.75;0.40;;;;;;;;;;5124421;28;20043;-77
2022/04/26 10:36:59;;;;;;;1.63;0.80;;;;;;;;;;5123988;28;20424;-76
2022/04/26 10:39:34;;;;;;;7.50;1.10;;;;;;;;;;5105660;28;20054;-77
2022/04/26 10:42:26;;;;;;;2.53;0.98;;;;;;;;;;5123374;28;20043;-76
2022/04/26 10:45:09;;;;;;;6.90;2.05;;;;;;;;;;5123072;28;20058;-77
2022/04/26 10:47:40;;;;;;;2.15;0.60;;;;;;;;;;5124267;28;20050;-75
2022/04/26 10:50:12;;;;;;;;;;;;;;;;;;5124250;28;20047;-75
2022/04/26 10:52:43;;;;;;;7.80;2.58;;;;;;;;;;5105450;28;20435;-77
2022/04/26 10:55:14;;;;;;;3.92;0.85;;;;;;;;;;5123751;28;20051;-75
2022/04/26 10:57:47;;;;;;;2.03;0.95;;;;;;;;;;5103900;28;20043;-76
2022/04/26 11:00:32;;;;;;;2.58;0.77;;;;;;;;;;5105055;28;20618;-77
2022/04/26 11:03:05;;;;;;;5.82;1.25;;;;;;;;;;5122879;28;20050;-75
2022/04/26 11:05:35;;;;;;;5.22;1.10;;;;;;;;;;5123839;28;20039;-76
2022/04/26 11:08:06;;;;;;;4.05;1.13;;;;;;;;;;5123550;28;20121;-74
2022/04/26 11:13:35;;;;;;;3.10;1.20;;;;;;;;;;5123532;28;20050;-75
2022/04/26 11:16:12;;;;;;;8.05;1.90;;;;;;;;;;5122873;28;20415;-77
2022/04/26 11:18:43;;;;;;;4.15;1.17;;;;;;;;;;5125884;27;20069;-75
2022/04/26 11:21:13;;;;;;;9.85;1.90;;;;;;;;;;5133571;27;20043;-77
2022/04/26 11:29:43;;;;;;;9.07;1.70;;;;;;;;;;5129578;27;20082;-75
2022/04/26 11:32:34;;;;;;;4.70;1.60;;;;;;;;;;5110151;27;20055;-76
2022/04/26 11:35:09;;;;;;;8.90;1.88;;;;;;;;;;5131442;27;20050;-77
2022/04/26 11:37:50;;;;;;;7.07;2.00;;;;;;;;;;5131270;27;20039;-76
2022/04/26 11:40:36;;;;;;;16.13;2.35;;;;;;;;;;5129446;27;20058;-75
2022/04/26 11:43:14;;;;;;;4.90;2.50;;;;;;;;;;5129198;27;20054;-76
2022/04/26 11:45:52;;;;;;;7.97;2.28;;;;;;;;;;5129356;27;20054;-77
2022/04/26 11:48:25;;;;;;;10.18;2.67;;;;;;;;;;5129341;27;20047;-77
2022/04/26 12:05:55;;;;;;;6.65;2.58;;;;;;;;;;5143687;27;20348;-74
2022/04/26 12:08:28;;;;;;;7.40;2.30;;;;;;;;;;5144622;27;20066;-76
2022/04/26 12:11:17;;;;;;;4.40;2.30;;;;;;;;;;5145703;27;20047;-73
2022/04/26 12:14:01;;;;;;;5.20;3.10;;;;;;;;;;5145322;27;20493;-76
2022/04/26 12:16:35;;;;;;;8.20;2.38;;;;;;;;;;5145295;27;20042;-74
2022/04/26 12:19:05;;;;;;;7.03;2.30;;;;;;;;;;5144807;27;20039;-74
2022/04/26 12:21:51;;;;;;;4.82;2.90;;;;;;;;;;5143839;27;20054;-75
2022/04/26 12:24:25;;;;;;;5.05;2.20;;;;;;;;;;5143833;27;20043;-74
2022/04/26 12:27:26;;;;;;;9.88;3.38;;;;;;;;;;5145311;27;20046;-74
2022/04/26 12:29:56;;;;;;;2.80;2.47;;;;;;;;;;5144255;27;20038;-73
2022/04/26 12:32:31;;;;;;;9.82;2.60;;;;;;;;;;5144781;27;20054;-75
2022/04/26 12:35:01;;;;;;;4.07;2.40;;;;;;;;;;5144213;27;20153;-75
2022/04/26 12:37:33;;;;;;;7.15;1.95;;;;;;;;;;5144765;27;20051;-74
2022/04/26 12:40:10;;;;;;;3.33;2.30;;;;;;;;;;5144379;27;20054;-75
2022/04/26 12:42:42;;;;;;;6.95;2.80;;;;;;;;;;5144895;27;20528;-77
2022/04/26 12:45:21;;;;;;;5.75;2.58;;;;;;;;;;5144717;27;20046;-75
2022/04/26 12:51:21;;;;;;;6.22;2.33;;;;;;;;;;5143715;27;20062;-75
2022/04/26 12:54:12;;;;;;;6.38;2.65;;;;;;;;;;5144246;27;20039;-74
2022/04/26 12:57:03;;;;;;;6.68;2.25;;;;;;;;;;5143877;27;20039;-76
2022/04/26 12:59:36;;;;;;;5.82;2.67;;;;;;;;;;5143996;27;20051;-74
2022/04/26 13:02:07;;;;;;;6.00;2.85;;;;;;;;;;5144239;27;20726;-76
2022/04/26 13:04:37;;;;;;;6.57;2.22;;;;;;;;;;5141340;27;20417;-74
2022/04/26 13:07:08;;;;;;;8.50;2.45;;;;;;;;;;5112525;27;20525;-74
2022/04/26 13:09:38;;;;;;;2.88;2.25;;;;;;;;;;5130066;27;20047;-75
2022/04/26 13:12:09;;;;;;;5.68;2.42;;;;;;;;;;5130166;27;20043;-74
2022/04/26 13:14:40;;;;;;;6.82;2.40;;;;;;;;;;5130640;27;20066;-74
2022/04/26 13:17:20;;;;;;;7.18;2.50;;;;;;;;;;5130339;27;20051;-75
2022/04/26 13:19:51;;;;;;;4.82;2.88;;;;;;;;;;5129202;27;20058;-76
2022/04/26 13:22:22;;;;;;;7.03;2.88;;;;;;;;;;5130157;27;20057;-76
2022/04/26 13:24:52;;;;;;;;;;;;;;;;;;5130395;27;20043;-73
2022/04/26 13:27:22;;;;;;;8.77;2.15;;;;;;;;;;5128042;27;19923;-73
2022/04/26 13:29:52;;;;;;;4.90;2.15;;;;;;;;;;5127846;27;20061;-74
2022/04/26 13:32:22;;;;;;;6.45;2.30;;;;;;;;;;5129527;27;20413;-74
2022/04/26 13:34:52;;;;;;;3.85;2.10;;;;;;;;;;5129486;27;20051;-73
2022/04/26 13:37:28;;;;;;;6.85;2.05;;;;;;;;;;5129780;27;20043;-72
2022/04/26 13:40:02;;;;;;;8.90;2.45;;;;;;;;;;5130043;27;20046;-74
2022/04/26 13:42:32;;;;;;;2.78;2.10;;;;;;;;;;5129981;27;20039;-73
2022/04/26 13:45:03;;;;;;;4.83;2.20;;;;;;;;;;5129407;27;20054;-75
2022/04/26 13:47:36;;;;;;;15.80;2.30;;;;;;;;;;5129407;27;20035;-73
2022/04/26 13:50:08;;;;;;;5.15;2.15;;;;;;;;;;5129662;27;20053;-74
2022/04/26 13:52:41;;;;;;;9.13;2.10;;;;;;;;;;5129192;27;20058;-76
2022/04/26 13:55:15;;;;;;;4.55;2.50;;;;;;;;;;5128028;27;20062;-77
2022/04/26 13:57:47;;;;;;;6.88;2.33;;;;;;;;;;5128436;27;20624;-75
2022/04/26 14:00:17;;;;;;;5.63;2.23;;;;;;;;;;5128696;27;20050;-74
2022/04/26 14:02:48;;;;;;;4.68;2.33;;;;;;;;;;5128500;27;20054;-76
2022/04/26 14:05:24;;;;;;;3.85;2.10;;;;;;;;;;5129373;27;20055;-74
2022/04/26 14:07:54;;;;;;;4.70;2.35;;;;;;;;;;5129164;27;20477;-72
2022/04/26 14:10:24;;;;;;;8.20;2.30;;;;;;;;;;5128169;27;20058;-76
2022/04/26 14:12:55;;;;;;;12.18;2.35;;;;;;;;;;5129137;27;20051;-75
2022/04/26 14:23:51;;;;;;;7.28;2.20;;;;;;;;;;5128935;27;20046;-76
2022/04/26 14:26:21;;;;;;;6.63;1.88;;;;;;;;;;5129087;27;20039;-75
2022/04/26 14:28:51;;;;;;;5.32;2.10;;;;;;;;;;5128720;27;20523;-77
2022/04/26 14:31:21;;;;;;;9.60;2.28;;;;;;;;;;5128565;27;20039;-74
2022/04/26 14:33:51;;;;;;;6.43;2.05;;;;;;;;;;5127076;27;20050;-74
2022/04/26 14:36:22;;;;;;;8.50;2.38;;;;;;;;;;5128558;27;20441;-76
2022/04/26 14:39:15;;;;;;;4.25;1.73;;;;;;;;;;5126281;27;20059;-75
2022/04/26 14:41:46;;;;;;;7.13;2.00;;;;;;;;;;5128728;27;20051;-77
2022/04/26 14:44:17;;;;;;;45.67;5.03;;;;;;;;;;5128375;27;20051;-74
2022/04/26 14:46:46;;;;;;;7.35;2.15;;;;;;;;;;5128203;27;20062;-75
2022/04/26 14:49:16;;;;;;;7.57;1.90;;;;;;;;;;5125922;27;20509;-75
2022/04/26 14:51:46;;;;;;;14.00;1.88;;;;;;;;;;5127730;27;20047;-76
2022/04/26 14:54:17;;;;;;;5.75;1.60;;;;;;;;;;5128029;27;20509;-76
2022/04/26 14:56:48;;;;;;;8.75;2.25;;;;;;;;;;5128527;27;20054;-76
2022/04/26 14:59:21;;;;;;;4.55;2.83;;;;;;;;;;5126310;27;20040;-75
2022/04/26 15:01:53;;;;;;;9.25;2.13;;;;;;;;;;5126694;27;20043;-74
2022/04/26 15:04:25;;;;;;;28.77;3.97;;;;;;;;;;5127443;27;20055;-76
2022/04/26 15:06:56;;;;;;;8.27;2.83;;;;;;;;;;5128047;27;20050;-77
2022/04/26 15:09:44;;;;;;;5.55;2.85;;;;;;;;;;5127881;27;20050;-77
2022/04/26 15:17:53;;;;;;;7.15;1.92;;;;;;;;;;5127219;27;20047;-76
2022/04/26 15:20:25;;;;;;;5.40;1.83;;;;;;;;;;5127438;27;20051;-75
2022/04/26 15:22:55;;;;;;;5.70;2.20;;;;;;;;;;5126983;27;20414;-76
2022/04/26 15:25:25;;;;;;;7.43;2.10;;;;;;;;;;5127386;27;20058;-76
2022/04/26 15:27:55;;;;;;;5.18;2.03;;;;;;;;;;5127689;27;20047;-75
2022/04/26 15:30:25;;;;;;;6.75;2.00;;;;;;;;;;5127380;27;20516;-73
2022/04/26 15:32:55;;;;;;;13.48;2.00;;;;;;;;;;5127324;27;20768;-76
2022/04/26 15:35:25;;;;;;;34.85;4.00;;;;;;;;;;5127146;27;20047;-77
2022/04/26 15:37:55;;;;;;;9.00;2.08;;;;;;;;;;5127618;27;20047;-73
2022/04/26 15:40:26;;;;;;;3.33;1.52;;;;;;;;;;5127236;27;20485;-75
2022/04/26 15:42:56;;;;;;;7.22;2.00;;;;;;;;;;5127613;27;20043;-75
2022/04/26 15:45:27;;;;;;;9.30;2.25;;;;;;;;;;5126913;27;20047;-76
2022/04/26 15:48:00;;;;;;;9.82;1.88;;;;;;;;;;5125487;27;20077;-74
2022/04/26 15:50:30;;;;;;;6.15;2.20;;;;;;;;;;5126971;27;20409;-74
2022/04/26 15:53:00;;;;;;;7.03;2.13;;;;;;;;;;5126378;28;20051;-77
2022/04/26 15:55:36;;;;;;;10.73;1.77;;;;;;;;;;5126717;28;20047;-73
2022/04/26 15:58:06;;;;;;;4.93;1.95;;;;;;;;;;5127469;28;20413;-74
2022/04/26 16:00:36;;;;;;;6.72;1.60;;;;;;;;;;5127002;28;20047;-75
2022/04/26 16:03:06;;;;;;;6.45;1.67;;;;;;;;;;5127538;28;20043;-75
2022/04/26 16:05:37;;;;;;;4.50;1.40;;;;;;;;;;5127459;28;20047;-74
2022/04/26 16:08:08;;;;;;;10.48;2.10;;;;;;;;;;5127551;28;20185;-74
2022/04/26 16:21:52;;;;;;;10.55;1.65;;;;;;;;;;5126764;28;20413;-75
2022/04/26 16:24:25;;;;;;;2.78;1.48;;;;;;;;;;5127079;28;20450;-75
2022/04/26 16:26:55;;;;;;;9.18;1.40;;;;;;;;;;5125919;28;20378;-76
2022/04/26 16:29:26;;;;;;;2.38;1.25;;;;;;;;;;5125050;28;20055;-74
2022/04/26 16:31:58;;;;;;;3.42;1.63;;;;;;;;;;5126350;28;20051;-74
2022/04/26 16:34:28;;;;;;;4.20;1.60;;;;;;;;;;5126707;28;20058;-76
2022/04/26 16:36:58;;;;;;;;;;;;;;;;;;5126981;28;20047;-80
2022/04/26 16:39:28;;;;;;;7.72;1.35;;;;;;;;;;5126562;27;19930;-73
2022/04/26 16:41:58;;;;;;;4.45;1.48;;;;;;;;;;5129053;27;20035;-76
2022/04/26 16:44:27;;;;;;;8.65;1.70;;;;;;;;;;5130589;27;20047;-71
2022/04/26 16:46:58;;;;;;;6.70;1.80;;;;;;;;;;5130538;27;20039;-73
2022/04/26 16:49:30;;;;;;;4.72;1.70;;;;;;;;;;5129744;27;20528;-73
2022/04/26 16:52:00;;;;;;;7.57;1.88;;;;;;;;;;5130900;27;20039;-73
2022/04/26 16:54:30;;;;;;;5.65;1.77;;;;;;;;;;5130456;27;20059;-77
2022/04/26 16:57:03;;;;;;;5.70;1.70;;;;;;;;;;5130313;27;20048;-74
2022/04/26 16:59:33;;;;;;;3.50;1.40;;;;;;;;;;5128891;27;20673;-73
2022/04/26 17:02:03;;;;;;;3.20;1.33;;;;;;;;;;5130559;27;20051;-74
2022/04/26 17:04:33;;;;;;;7.95;1.73;;;;;;;;;;5112397;27;20600;-73
2022/04/26 17:07:04;;;;;;;9.90;2.13;;;;;;;;;;5130339;27;20062;-73
2022/04/26 17:09:36;;;;;;;9.73;2.20;;;;;;;;;;5129257;27;20054;-73
2022/04/26 17:12:08;;;;;;;4.00;1.60;;;;;;;;;;5129960;27;20051;-74
2022/04/26 17:14:39;;;;;;;5.47;1.42;;;;;;;;;;5130427;27;20532;-75
2022/04/26 17:17:11;;;;;;;5.25;1.60;;;;;;;;;;5129648;27;20046;-73
2022/04/26 17:19:42;;;;;;;5.30;1.70;;;;;;;;;;5129987;27;20047;-73
2022/04/26 17:22:12;;;;;;;2.85;1.30;;;;;;;;;;5130327;27;20055;-73
2022/04/26 17:27:34;;;;;;;9.43;1.90;;;;;;;;;;5129996;27;20402;-76
2022/04/26 17:30:05;;;;;;;3.33;1.35;;;;;;;;;;5127755;27;20059;-73
2022/04/26 17:32:42;;;;;;;5.85;1.58;;;;;;;;;;5129775;27;20058;-74
2022/04/26 17:35:13;;;;;;;6.38;2.33;;;;;;;;;;5129603;27;20047;-73
2022/04/26 17:37:43;;;;;;;2.95;1.50;;;;;;;;;;5129699;27;20039;-73
2022/04/26 17:40:15;;;;;;;;;;;;;;;;;;5129983;27;20659;-74
2022/04/26 17:42:44;;;;;;;;;;;;;;;;;;5126469;27;19938;-74
2022/04/26 17:45:16;;;;;;;16.95;2.50;;;;;;;;;;5125817;27;19924;-73
2022/04/26 17:47:46;;;;;;;6.78;1.42;;;;;;;;;;5125781;27;20046;-74
2022/04/26 17:50:16;;;;;;;3.63;1.40;;;;;;;;;;5128804;27;20046;-74
2022/04/26 17:58:23;;;;;;;15.48;2.72;;;;;;;;;;5129191;27;20055;-74
2022/04/26 18:00:53;;;;;;;5.43;1.63;;;;;;;;;;5129846;27;20049;-74
2022/04/26 18:03:24;;;;;;;7.10;1.85;;;;;;;;;;5127487;27;20047;-74
2022/04/26 18:05:54;;;;;;;7.30;2.47;;;;;;;;;;5128923;27;20051;-74
2022/04/26 18:08:27;;;;;;;4.20;1.52;;;;;;;;;;5129232;27;20864;-74
2022/04/26 18:10:58;;;;;;;3.03;1.60;;;;;;;;;;5129133;27;20055;-74
2022/04/26 18:13:31;;;;;;;8.27;1.75;;;;;;;;;;5129068;27;20039;-75
2022/04/26 18:16:02;;;;;;;5.72;1.60;;;;;;;;;;5128705;27;20054;-74
2022/04/26 18:18:32;;;;;;;2.13;1.50;;;;;;;;;;5129148;27;20043;-74
2022/04/26 18:21:03;;;;;;;10.45;1.80;;;;;;;;;;5128606;27;20061;-75
2022/04/26 18:23:33;;;;;;;6.40;1.73;;;;;;;;;;5128347;27;20501;-77
2022/04/26 18:26:12;;;;;;;5.13;1.67;;;;;;;;;;5128434;27;20051;-75
2022/04/26 18:28:46;;;;;;;4.57;1.50;;;;;;;;;;5129488;27;20054;-74
2022/04/26 18:31:19;;;;;;;4.78;1.77;;;;;;;;;;5128584;27;20051;-74
2022/04/26 18:33:51;;;;;;;5.72;1.90;;;;;;;;;;5128627;27;20043;-74
2022/04/26 18:36:21;;;;;;;2.20;1.40;;;;;;;;;;5128089;27;20047;-74
2022/04/26 18:38:54;;;;;;;3.67;1.53;;;;;;;;;;5126494;27;20062;-74
2022/04/26 18:41:29;;;;;;;8.70;1.73;;;;;;;;;;5127665;27;20071;-74
2022/04/26 18:43:59;;;;;;;9.38;1.83;;;;;;;;;;5128567;27;20395;-74
2022/04/26 18:46:29;;;;;;;13.45;2.45;;;;;;;;;;5127938;27;20047;-75
2022/04/26 18:48:59;;;;;;;2.88;1.70;;;;;;;;;;5127698;27;20043;-74
2022/04/26 18:51:29;;;;;;;6.55;1.77;;;;;;;;;;5121223;27;20051;-74
2022/04/26 18:53:59;;;;;;;3.60;1.50;;;;;;;;;;5106766;28;20044;-73
2022/04/26 18:56:30;;;;;;;8.70;1.95;;;;;;;;;;5105961;27;20305;-74
2022/04/26 18:59:00;;;;;;;;;;;;;;;;;;5107564;28;20044;-74
2022/04/26 19:01:30;;;;;;;4.70;1.88;;;;;;;;;;5106281;28;19930;-75
2022/04/26 19:04:00;;;;;;;6.43;1.77;;;;;;;;;;5106245;28;20062;-73
2022/04/26 19:06:30;;;;;;;8.00;2.20;;;;;;;;;;5107464;28;20039;-73
2022/04/26 19:09:00;;;;;;;7.70;1.80;;;;;;;;;;5105672;28;20067;-74
2022/04/26 19:14:18;;;;;;;6.95;1.77;;;;;;;;;;5105901;28;20039;-75
2022/04/26 19:16:48;;;;;;;5.30;1.95;;;;;;;;;;5105052;28;20137;-74
2022/04/26 19:19:18;;;;;;;3.22;1.33;;;;;;;;;;5105476;28;20502;-74
2022/04/26 19:21:48;;;;;;;2.42;1.60;;;;;;;;;;5105562;28;20105;-75
2022/04/26 19:24:21;;;;;;;10.43;1.80;;;;;;;;;;5105734;28;20047;-75
2022/04/26 19:26:52;;;;;;;6.07;2.20;;;;;;;;;;5103567;28;20070;-75
2022/04/26 19:29:22;;;;;;;2.92;1.70;;;;;;;;;;5106054;28;20627;-75
2022/04/26 19:31:54;;;;;;;9.40;1.67;;;;;;;;;;5104141;28;20052;-75
2022/04/26 19:34:24;;;;;;;6.13;2.28;;;;;;;;;;5106785;28;20043;-75
2022/04/26 19:36:54;;;;;;;4.07;1.70;;;;;;;;;;5105221;28;20066;-77
2022/04/26 19:39:24;;;;;;;5.17;1.53;;;;;;;;;;5106706;28;20047;-75
2022/04/26 19:41:54;;;;;;;8.35;1.65;;;;;;;;;;5106389;28;20289;-75
2022/04/26 19:44:24;;;;;;;7.03;1.92;;;;;;;;;;5105855;28;20071;-75
2022/04/26 19:46:58;;;;;;;3.33;1.83;;;;;;;;;;5105880;28;20036;-75
2022/04/26 19:49:28;;;;;;;6.47;2.45;;;;;;;;;;5106337;28;20052;-75
2022/04/26 19:51:58;;;;;;;4.05;1.80;;;;;;;;;;5106369;28;20043;-75
2022/04/26 19:54:28;;;;;;;9.32;2.35;;;;;;;;;;5106487;28;20035;-75
2022/04/26 19:56:59;;;;;;;5.65;1.90;;;;;;;;;;5106480;28;20039;-77
2022/04/26 19:59:29;;;;;;;9.32;2.00;;;;;;;;;;5105284;28;20406;-74
2022/04/26 20:02:10;;;;;;;8.88;2.05;;;;;;;;;;5105940;28;20035;-73
2022/04/26 20:04:41;;;;;;;8.48;2.22;;;;;;;;;;5105747;28;20506;-75
2022/04/26 20:07:10;;;;;;;12.95;2.05;;;;;;;;;;5104651;28;20058;-74
2022/04/26 20:09:41;;;;;;;5.97;1.90;;;;;;;;;;5106003;28;20044;-75
2022/04/26 20:12:11;;;;;;;5.65;1.70;;;;;;;;;;5106798;28;20043;-75
2022/04/26 20:14:41;;;;;;;5.03;1.90;;;;;;;;;;5104796;28;20051;-74
2022/04/26 20:17:11;;;;;;;5.20;1.77;;;;;;;;;;5110008;28;20055;-73